createdAt,value
2023-03-14T00:00:01.694Z,12.59
2023-03-14T00:05:00.557Z,12.6
2023-03-14T00:10:01.499Z,12.42
2023-03-14T00:15:00.568Z,12.35
2023-03-14T00:20:00.698Z,12.35
2023-03-14T00:25:00.467Z,12.16
2023-03-14T00:30:01.920Z,12.25
2023-03-14T00:35:00.593Z,12.22
2023-03-14T00:40:00.507Z,12.22
2023-03-14T00:45:02.276Z,12.12
2023-03-14T00:50:00.690Z,12.12
2023-03-14T00:55:00.565Z,11.89
2023-03-14T01:00:00.570Z,11.89
2023-03-14T01:05:01.052Z,11.99
2023-03-14T01:10:00.468Z,12.5
2023-03-14T01:15:00.608Z,12.5
2023-03-14T01:20:00.649Z,12.42
2023-03-14T01:25:01.084Z,12.42
2023-03-14T01:30:00.561Z,12.74
2023-03-14T01:35:00.970Z,12.74
2023-03-14T01:40:00.526Z,12.54
2023-03-14T01:45:00.540Z,12.54
2023-03-14T01:50:00.666Z,12.44
2023-03-14T01:55:00.594Z,12.44
2023-03-14T02:00:03.322Z,12.44
2023-03-14T02:05:00.966Z,12.44
2023-03-14T02:10:00.880Z,12.9
2023-03-14T02:15:00.727Z,13.11
2023-03-14T02:20:01.052Z,13.22
2023-03-14T02:25:00.470Z,13.22
2023-03-14T02:30:01.022Z,13.22
2023-03-14T02:35:00.559Z,13.22
2023-03-14T02:40:00.624Z,12.86
2023-03-14T02:45:00.737Z,12.9
2023-03-14T02:50:00.833Z,12.9
2023-03-14T02:55:00.474Z,12.9
2023-03-14T03:00:00.541Z,12.9
2023-03-14T03:05:00.768Z,12.7
2023-03-14T03:10:00.490Z,12.7
2023-03-14T03:15:00.616Z,12.7
2023-03-14T03:20:00.537Z,12.7
2023-03-14T03:25:00.741Z,12.77
2023-03-14T03:30:00.598Z,12.77
2023-03-14T03:35:01.096Z,12.25
2023-03-14T03:40:00.536Z,12.01
2023-03-14T03:45:00.877Z,12.01
2023-03-14T03:50:00.707Z,11.58
2023-03-14T03:55:00.556Z,11.58
2023-03-14T04:00:00.619Z,11.58
2023-03-14T04:05:00.594Z,12.11
2023-03-14T04:10:00.843Z,12.11
2023-03-14T04:15:00.500Z,12.11
2023-03-14T04:20:00.711Z,12.61
2023-03-14T04:25:02.648Z,12.61
2023-03-14T04:30:02.594Z,12.11
2023-03-14T04:35:00.677Z,12.11
2023-03-14T04:40:01.807Z,11.99
2023-03-14T04:45:00.526Z,11.81
2023-03-14T04:50:00.951Z,11.81
2023-03-14T04:55:00.605Z,11.81
2023-03-14T05:00:03.343Z,11.81
2023-03-14T05:05:01.420Z,11.81
2023-03-14T05:10:01.301Z,11.81
2023-03-14T05:15:00.462Z,11.81
2023-03-14T05:20:00.728Z,12.13
2023-03-14T05:25:00.469Z,12.13
2023-03-14T05:30:00.538Z,12.13
2023-03-14T05:35:02.626Z,11.7
2023-03-14T05:40:00.502Z,11.7
2023-03-14T05:45:00.756Z,11.7
2023-03-14T05:50:01.293Z,11.7
2023-03-14T05:55:00.534Z,11.12
2023-03-14T06:00:02.118Z,10.99
2023-03-14T06:05:00.553Z,10.99
2023-03-14T06:10:00.691Z,10.99
2023-03-14T06:15:00.560Z,10.99
2023-03-14T06:20:01.253Z,10.99
2023-03-14T06:25:00.550Z,11.52
2023-03-14T06:30:00.763Z,11.12
2023-03-14T06:35:00.612Z,11.12
2023-03-14T06:40:00.693Z,10.99
2023-03-14T06:45:00.780Z,10.99
2023-03-14T06:50:00.819Z,10.99
2023-03-14T06:55:00.494Z,10.99
2023-03-14T07:00:01.918Z,10.99
2023-03-14T07:05:01.051Z,10.99
2023-03-14T07:10:00.557Z,10.99
2023-03-14T07:15:11.931Z,11.26
2023-03-14T07:20:01.411Z,11.26
2023-03-14T07:25:00.496Z,11.25
2023-03-14T07:30:00.623Z,11.25
2023-03-14T07:35:00.760Z,11.25
2023-03-14T07:40:01.358Z,11.25
2023-03-14T07:45:00.521Z,11.75
2023-03-14T07:50:01.231Z,11.75
2023-03-14T07:55:01.000Z,11.75
2023-03-14T08:00:01.553Z,12.32
2023-03-14T08:05:02.592Z,12.32
2023-03-14T08:10:00.629Z,12.86
2023-03-14T08:15:00.734Z,12.86
2023-03-14T08:20:00.573Z,12.87
2023-03-14T08:25:01.558Z,12.87
2023-03-14T08:30:00.779Z,12.87
2023-03-14T08:35:00.651Z,12.87
2023-03-14T08:40:00.473Z,12.87
2023-03-14T08:45:00.565Z,12.93
2023-03-14T08:50:00.820Z,12.93
2023-03-14T08:55:01.768Z,13.43
2023-03-14T09:00:00.984Z,13.43
2023-03-14T09:05:00.499Z,13.43
2023-03-14T09:10:00.394Z,13.43
2023-03-14T09:15:00.390Z,13.25
2023-03-14T09:20:00.748Z,13.25
2023-03-14T09:25:00.468Z,13.25
2023-03-14T09:30:00.377Z,13.23
2023-03-14T09:35:00.542Z,13.23
2023-03-14T09:40:00.356Z,13.23
2023-03-14T09:45:00.451Z,13.23
2023-03-14T09:50:02.790Z,13.23
2023-03-14T09:55:00.596Z,13.53
2023-03-14T10:00:01.382Z,13.53
2023-03-14T10:05:06.690Z,13.54
2023-03-14T10:10:00.289Z,13.54
2023-03-14T10:15:00.563Z,13.54
2023-03-14T10:20:00.356Z,13.56
2023-03-14T10:25:00.807Z,13.66
2023-03-14T10:30:01.032Z,13.66
2023-03-14T10:35:01.213Z,13.66
2023-03-14T10:40:03.278Z,13.66
2023-03-14T10:45:00.295Z,13.66
2023-03-14T10:50:00.568Z,13.66
2023-03-14T10:55:01.730Z,13.66
2023-03-14T11:00:02.863Z,13.64
2023-03-14T11:05:01.441Z,13.64
2023-03-14T11:10:00.511Z,13.69
2023-03-14T11:15:01.268Z,13.96
2023-03-14T11:20:01.499Z,13.96
2023-03-14T11:25:01.659Z,13.96
2023-03-14T11:30:00.291Z,13.96
2023-03-14T11:35:01.578Z,13.96
2023-03-14T11:40:01.786Z,13.96
2023-03-14T11:45:00.614Z,14.46
2023-03-14T11:50:01.992Z,14.34
2023-03-14T11:55:00.307Z,14.05
2023-03-14T12:00:01.096Z,14.05
2023-03-14T12:05:00.434Z,14.05
2023-03-14T12:10:00.296Z,14.18
2023-03-14T12:15:00.346Z,14.18
2023-03-14T12:20:01.824Z,14.69
2023-03-14T12:25:00.285Z,14.69
2023-03-14T12:30:02.484Z,14.84
2023-03-14T12:35:00.442Z,14.73
2023-03-14T12:40:00.554Z,15.25
2023-03-14T12:45:00.658Z,15.27
2023-03-14T12:50:00.595Z,15.24
2023-03-14T12:55:00.422Z,15.24
2023-03-14T13:00:00.774Z,15.24
2023-03-14T13:05:01.278Z,15.24
2023-03-14T13:10:00.294Z,15.24
2023-03-14T13:15:00.439Z,15.24
2023-03-14T13:20:00.367Z,14.72
2023-03-14T13:25:00.443Z,14.72
2023-03-14T13:30:00.439Z,14.72
2023-03-14T13:35:00.558Z,14.72
2023-03-14T13:40:00.354Z,14.72
2023-03-14T13:45:00.378Z,15.22
2023-03-14T13:50:00.552Z,15.22
2023-03-14T13:55:00.273Z,15.22
2023-03-14T14:00:00.466Z,15.22
2023-03-14T14:05:00.474Z,15.22
2023-03-14T14:10:00.359Z,14.72
2023-03-14T14:15:00.430Z,14.55
2023-03-14T14:20:00.363Z,14.55
2023-03-14T14:25:00.429Z,14.18
2023-03-14T14:30:00.560Z,14.18
2023-03-14T14:35:00.449Z,14.67
2023-03-14T14:40:00.317Z,14.83
2023-03-14T14:45:00.388Z,14.76
2023-03-14T14:50:01.959Z,14.76
2023-03-14T14:55:00.291Z,15.31
2023-03-14T15:00:00.477Z,15.31
2023-03-14T15:05:00.497Z,15.31
2023-03-14T15:10:00.293Z,14.79
2023-03-14T15:15:00.400Z,14.79
2023-03-14T15:20:00.404Z,14.79
2023-03-14T15:25:00.396Z,14.79
2023-03-14T15:30:00.376Z,14.79
2023-03-14T15:35:00.906Z,14.26
2023-03-14T15:40:00.331Z,14.26
2023-03-14T15:45:00.478Z,13.43
2023-03-14T15:50:00.443Z,13.32
2023-03-14T15:55:00.375Z,12.56
2023-03-14T16:00:00.467Z,12.44
2023-03-14T16:05:00.503Z,12.44
2023-03-14T16:10:00.314Z,12.44
2023-03-14T16:15:00.735Z,12.44
2023-03-14T16:20:00.537Z,12.44
2023-03-14T16:25:00.451Z,12.78
2023-03-14T16:30:00.644Z,12.35
2023-03-14T16:35:01.365Z,12.35
2023-03-14T16:40:12.022Z,12.12
2023-03-14T16:45:00.365Z,11.89
2023-03-14T16:50:00.541Z,11.89
2023-03-14T16:55:00.304Z,11.77
2023-03-14T17:00:00.464Z,11.94
2023-03-14T17:05:00.679Z,11.71
2023-03-14T17:10:00.362Z,11.61
2023-03-14T17:15:00.459Z,11.29
2023-03-14T17:20:00.535Z,11.15
2023-03-14T17:25:00.541Z,11.02
2023-03-14T17:30:00.505Z,10.92
2023-03-14T17:35:00.398Z,10.92
2023-03-14T17:40:00.316Z,10.9
2023-03-14T17:45:00.445Z,11.03
2023-03-14T17:50:00.417Z,11.03
2023-03-14T17:55:00.464Z,11.36
2023-03-14T18:00:00.405Z,11.36
2023-03-14T18:05:00.462Z,11.84
2023-03-14T18:10:00.334Z,11.84
2023-03-14T18:15:00.388Z,11.63
2023-03-14T18:20:00.357Z,11.63
2023-03-14T18:25:00.499Z,11.63
2023-03-14T18:30:00.383Z,11.63
2023-03-14T18:35:01.409Z,11.26
2023-03-14T18:40:00.375Z,11.26
2023-03-14T18:45:02.810Z,11.05
2023-03-14T18:50:00.382Z,10.53
2023-03-14T18:55:00.482Z,9.41
2023-03-14T19:00:00.564Z,8.9
2023-03-14T19:05:00.516Z,8.29
2023-03-14T19:10:00.323Z,7.75
2023-03-14T19:15:00.412Z,7.75
2023-03-14T19:20:00.339Z,7.34
2023-03-14T19:25:00.462Z,7.34
2023-03-14T19:30:00.435Z,7.4
2023-03-14T19:35:00.497Z,7.34
2023-03-14T19:40:00.304Z,7.34
2023-03-14T19:45:00.411Z,7.23
2023-03-14T19:50:00.339Z,7.18
2023-03-14T19:55:00.532Z,7.03
2023-03-14T20:00:00.502Z,7.03
2023-03-14T20:05:00.790Z,6.97
2023-03-14T20:10:00.321Z,7.16
2023-03-14T20:15:00.594Z,7.16
2023-03-14T20:20:00.364Z,7.05
2023-03-14T20:25:00.495Z,7.05
2023-03-14T20:30:00.370Z,6.93
2023-03-14T20:35:00.654Z,6.93
2023-03-14T20:40:00.315Z,6.93
2023-03-14T20:45:00.505Z,6.54
2023-03-14T20:50:00.412Z,6.54
2023-03-14T20:55:00.390Z,6.68
2023-03-14T21:00:00.576Z,6.8
2023-03-14T21:05:00.540Z,6.96
2023-03-14T21:10:00.297Z,6.96
2023-03-14T21:15:00.632Z,6.96
2023-03-14T21:20:00.336Z,6.96
2023-03-14T21:25:01.452Z,6.96
2023-03-14T21:30:00.285Z,6.96
2023-03-14T21:35:00.400Z,6.96
2023-03-14T21:40:00.445Z,6.96
2023-03-14T21:45:00.398Z,6.96
2023-03-14T21:50:00.285Z,6.96
2023-03-14T21:55:00.481Z,6.78
2023-03-14T22:00:00.333Z,6.78
2023-03-14T22:05:00.326Z,7.3
2023-03-14T22:10:00.507Z,7.3
2023-03-14T22:15:00.281Z,7.3
2023-03-14T22:20:00.333Z,7.3
2023-03-14T22:25:00.470Z,6.79
2023-03-14T22:30:00.283Z,6.79
2023-03-14T22:35:00.386Z,6.86
2023-03-14T22:40:00.467Z,6.86
2023-03-14T22:45:00.324Z,6.86
2023-03-14T22:50:00.257Z,6.62
2023-03-14T22:55:03.562Z,6.62
2023-03-14T23:00:00.313Z,6.55
2023-03-14T23:05:00.307Z,6.55
2023-03-14T23:10:00.664Z,6.55
2023-03-14T23:15:00.285Z,6.55
2023-03-14T23:20:00.364Z,6.55
2023-03-14T23:25:00.653Z,6.55
2023-03-14T23:30:00.337Z,6.55
2023-03-14T23:35:00.482Z,6.55
2023-03-14T23:40:00.679Z,6.55
2023-03-14T23:45:01.136Z,6.78
2023-03-14T23:50:00.309Z,6.74
2023-03-14T23:55:00.653Z,6.44
